createdAt,value
2022-12-02T06:43:21.464Z,80.44
2022-12-02T06:46:23.746Z,80.51
2022-12-02T06:49:33.771Z,80.03
2022-12-02T06:52:42.861Z,80.50
2022-12-02T06:55:45.187Z,80.11
2022-12-02T06:58:57.484Z,80.56
2022-12-02T07:02:07.986Z,80.12
2022-12-02T07:05:19.187Z,80.44
2022-12-02T07:08:21.472Z,80.22
2022-12-02T07:11:45.899Z,79.87
2022-12-02T07:14:49.385Z,79.86
2022-12-02T07:17:51.672Z,79.48
2022-12-02T07:20:53.644Z,80.68
2022-12-02T07:23:56.621Z,79.97
2022-12-02T07:27:05.515Z,80.33
2022-12-02T07:30:28.390Z,79.71
2022-12-02T07:33:30.427Z,79.55
2022-12-02T07:36:32.323Z,79.13
2022-12-02T07:39:34.331Z,78.87
2022-12-02T07:42:36.407Z,79.95
2022-12-02T07:45:38.560Z,78.66
2022-12-02T07:48:40.538Z,79.25
2022-12-02T07:51:42.434Z,78.88
2022-12-02T07:54:44.504Z,79.37
2022-12-02T07:57:46.339Z,78.82
2022-12-02T08:00:48.228Z,78.10
2022-12-02T08:03:50.348Z,77.89
2022-12-02T08:06:52.218Z,79.52
2022-12-02T08:09:54.066Z,79.33
2022-12-02T08:12:55.906Z,78.93
2022-12-02T08:15:57.751Z,79.16
2022-12-02T08:19:01.278Z,78.64
2022-12-02T08:22:03.321Z,78.83
2022-12-02T08:25:05.801Z,78.91
2022-12-02T08:28:07.670Z,78.60
2022-12-02T08:31:09.554Z,78.25
2022-12-02T08:34:11.547Z,79.44
2022-12-02T08:37:14.172Z,79.29
2022-12-02T08:40:16.170Z,79.14
2022-12-02T08:43:18.036Z,79.16
2022-12-02T08:46:20.001Z,79.10
2022-12-02T08:49:22.271Z,79.20
2022-12-02T08:52:24.436Z,78.22
2022-12-02T08:55:27.077Z,78.50
2022-12-02T08:58:28.962Z,78.43
2022-12-02T09:01:30.862Z,78.73
2022-12-02T09:04:32.971Z,78.64
2022-12-02T09:07:34.930Z,79.13
2022-12-02T09:10:37.473Z,79.16
2022-12-02T09:13:39.776Z,78.62
2022-12-02T09:16:41.640Z,78.83
2022-12-02T09:19:43.470Z,79.91
2022-12-02T09:22:45.757Z,80.26
2022-12-02T09:25:47.781Z,79.91
2022-12-02T09:28:49.795Z,79.70
2022-12-02T09:31:51.735Z,79.88
2022-12-02T09:34:53.943Z,79.87
2022-12-02T09:37:56.106Z,79.63
2022-12-02T09:41:00.221Z,80.46
2022-12-02T09:44:02.222Z,81.24
2022-12-02T09:47:04.428Z,80.56
2022-12-02T09:50:07.455Z,80.60
2022-12-02T09:53:14.520Z,80.69
2022-12-02T09:56:19.622Z,81.13
2022-12-02T09:59:22.948Z,81.35
2022-12-02T10:02:39.462Z,81.30
2022-12-02T10:05:41.818Z,80.61
2022-12-02T10:08:43.945Z,80.62
2022-12-02T10:11:45.991Z,80.73
2022-12-02T10:14:51.174Z,81.61
2022-12-02T10:17:55.106Z,81.24
2022-12-02T10:20:56.970Z,81.01
2022-12-02T10:24:00.600Z,79.97
2022-12-02T10:27:02.580Z,81.32
2022-12-02T10:30:20.084Z,80.24
2022-12-02T10:33:27.003Z,80.55
2022-12-02T10:36:33.006Z,80.22
2022-12-02T10:39:38.241Z,80.34
2022-12-02T10:42:40.698Z,80.31
2022-12-02T10:45:56.876Z,80.13
2022-12-02T10:49:28.530Z,80.68
2022-12-02T10:52:51.127Z,80.46
2022-12-02T10:55:52.987Z,80.37
2022-12-02T10:58:55.541Z,79.24
2022-12-02T11:02:31.042Z,80.35
2022-12-02T11:05:53.059Z,79.65
2022-12-02T11:09:17.225Z,80.05
2022-12-02T11:12:59.500Z,78.82
2022-12-02T11:16:26.091Z,78.79
2022-12-02T11:19:34.109Z,79.07
2022-12-02T11:32:49.852Z,80.96
2022-12-02T11:36:21.760Z,79.91
2022-12-02T11:39:42.710Z,79.45
2022-12-02T11:42:45.714Z,79.94
2022-12-02T11:45:47.532Z,79.16
2022-12-02T11:48:49.480Z,80.05
2022-12-02T11:51:51.932Z,79.53
2022-12-02T11:55:11.783Z,77.63
2022-12-02T11:58:25.584Z,78.01
2022-12-02T12:01:27.804Z,77.89
2022-12-02T12:04:29.939Z,77.19
2022-12-02T12:08:03.233Z,78.27
2022-12-02T12:11:37.439Z,78.36
2022-12-02T12:15:11.811Z,77.78
2022-12-02T12:18:46.359Z,78.35
2022-12-02T12:21:54.270Z,78.01
2022-12-02T12:25:34.496Z,78.00
2022-12-02T12:28:37.991Z,77.98
2022-12-02T12:31:39.975Z,78.07
2022-12-02T12:34:42.335Z,77.33
2022-12-02T12:37:44.163Z,78.30
2022-12-02T12:40:47.077Z,79.21
2022-12-02T12:44:31.133Z,77.45
2022-12-02T12:48:33.432Z,78.13
2022-12-02T12:52:35.084Z,77.44
2022-12-02T12:56:36.720Z,79.35
2022-12-02T13:00:14.148Z,78.29
2022-12-02T13:03:16.540Z,78.26
2022-12-02T13:06:18.655Z,76.98
2022-12-02T13:09:21.068Z,78.03
2022-12-02T13:12:22.956Z,79.06
2022-12-02T13:15:25.064Z,80.38
2022-12-02T13:18:27.457Z,79.10
2022-12-02T13:21:30.163Z,78.62
2022-12-02T13:24:33.271Z,78.12
2022-12-02T13:27:37.772Z,77.65
2022-12-02T13:30:42.689Z,78.23
2022-12-02T13:33:45.204Z,78.08
2022-12-02T13:36:47.032Z,79.36
2022-12-02T13:39:49.079Z,79.19
2022-12-02T13:42:51.183Z,79.80
2022-12-02T13:45:53.077Z,80.04
2022-12-02T13:48:55.011Z,80.86
2022-12-02T13:51:57.699Z,80.54
2022-12-02T13:54:59.626Z,79.77
2022-12-02T13:58:01.595Z,80.04
2022-12-02T14:01:03.611Z,81.54
2022-12-02T14:04:05.952Z,80.98
2022-12-02T14:07:07.944Z,81.46
2022-12-02T14:10:10.281Z,81.47
2022-12-02T14:13:18.334Z,80.84
2022-12-02T14:16:22.950Z,80.74
2022-12-02T14:19:25.123Z,80.49
2022-12-02T14:22:27.026Z,81.38
2022-12-02T14:25:28.820Z,81.10
2022-12-02T14:28:30.927Z,81.87
2022-12-02T14:31:32.946Z,82.03
2022-12-02T14:34:34.850Z,81.67
2022-12-02T14:37:36.749Z,82.19
2022-12-02T14:40:38.644Z,81.89
2022-12-02T14:43:40.492Z,81.93
2022-12-02T14:46:47.022Z,81.64
2022-12-02T14:49:51.601Z,81.70
2022-12-02T14:52:54.178Z,81.73
2022-12-02T14:55:56.167Z,81.10
2022-12-02T14:58:58.008Z,81.45
2022-12-02T15:02:00.554Z,81.62
2022-12-02T15:05:02.618Z,80.83
2022-12-02T15:08:05.004Z,80.88
2022-12-02T15:11:07.231Z,81.26
2022-12-02T15:14:10.270Z,82.10
2022-12-02T15:17:12.236Z,81.93
2022-12-02T15:20:14.243Z,81.94
2022-12-02T15:23:16.046Z,81.23
2022-12-02T15:26:18.119Z,81.94
2022-12-02T15:29:20.132Z,80.62
2022-12-02T15:32:22.260Z,80.50
2022-12-02T15:35:24.166Z,81.04
2022-12-02T15:38:26.625Z,81.47
2022-12-02T15:41:30.792Z,82.54
2022-12-02T15:44:33.002Z,82.55
2022-12-02T15:47:34.924Z,82.84
2022-12-02T15:50:36.781Z,82.82
2022-12-02T15:53:39.746Z,83.37
2022-12-02T15:56:41.799Z,83.12
2022-12-02T15:59:43.795Z,82.87
2022-12-02T16:02:47.813Z,83.44
2022-12-02T16:05:53.160Z,83.38
2022-12-02T16:08:55.976Z,84.85
2022-12-02T16:11:58.167Z,84.18
2022-12-02T16:29:46.751Z,87.99
2022-12-02T16:32:49.538Z,88.35
2022-12-02T16:35:51.709Z,87.54
2022-12-02T16:38:53.823Z,86.74
2022-12-02T16:41:55.696Z,87.88
2022-12-02T16:44:58.150Z,88.44
2022-12-02T16:48:00.824Z,88.89
2022-12-02T16:51:03.190Z,89.89
2022-12-02T16:54:05.476Z,88.57
2022-12-02T16:57:07.404Z,88.33
2022-12-02T17:00:09.988Z,88.93
2022-12-02T17:03:12.175Z,88.04
2022-12-02T17:06:14.053Z,88.97
2022-12-02T17:09:16.605Z,88.75
2022-12-02T17:33:12.584Z,87.48
2022-12-02T17:36:14.857Z,88.17
2022-12-02T17:39:18.184Z,88.22
2022-12-02T17:42:20.312Z,88.01
2022-12-02T17:45:22.468Z,88.18
2022-12-02T17:48:24.316Z,88.81
2022-12-02T17:51:26.233Z,88.71
2022-12-02T17:54:28.167Z,89.44
2022-12-02T17:57:30.263Z,89.13
2022-12-02T18:00:32.226Z,89.25
2022-12-02T18:03:34.188Z,88.32
2022-12-02T18:06:36.358Z,88.55
2022-12-02T18:09:39.079Z,87.71
2022-12-02T18:12:41.232Z,88.63
2022-12-02T18:15:43.605Z,87.51
2022-12-02T18:18:47.561Z,87.72
2022-12-02T18:21:49.337Z,88.17
2022-12-02T18:24:52.288Z,87.95
2022-12-02T18:27:54.567Z,88.42
2022-12-02T18:30:56.634Z,88.80
2022-12-02T18:48:44.389Z,88.04
2022-12-02T18:51:46.444Z,87.70
2022-12-02T18:54:49.792Z,87.10
2022-12-02T18:57:51.883Z,87.58
2022-12-02T19:00:53.951Z,87.02
2022-12-02T19:03:57.044Z,87.84
2022-12-02T19:06:59.189Z,86.83
2022-12-02T19:10:01.377Z,87.13
2022-12-02T19:13:03.647Z,86.74
2022-12-02T19:16:06.523Z,86.13
2022-12-02T19:19:08.769Z,86.34
2022-12-02T19:22:11.587Z,86.56
2022-12-02T19:25:13.881Z,86.67
2022-12-02T19:28:16.256Z,86.21
2022-12-02T19:52:13.205Z,84.60
2022-12-02T19:55:16.452Z,83.54
2022-12-02T19:58:18.679Z,84.63
2022-12-02T20:01:21.071Z,84.80
2022-12-02T20:04:40.657Z,84.68
2022-12-02T20:07:44.180Z,84.58
2022-12-02T20:10:46.112Z,83.82
2022-12-02T20:13:48.447Z,84.30
2022-12-02T20:16:51.030Z,84.19
2022-12-02T20:19:53.131Z,83.92
2022-12-02T20:22:55.350Z,84.29
2022-12-02T20:25:57.538Z,84.09
2022-12-02T20:28:59.905Z,83.98
2022-12-02T20:32:02.074Z,83.95
2022-12-02T20:35:05.919Z,84.27
2022-12-02T20:38:08.089Z,83.16
2022-12-02T20:41:10.349Z,83.66
2022-12-02T20:44:12.639Z,83.30
2022-12-02T20:47:14.961Z,83.63
2022-12-02T20:50:17.444Z,83.95
2022-12-02T20:53:19.606Z,83.99
2022-12-02T20:56:21.923Z,84.48
2022-12-02T20:59:24.082Z,83.79
2022-12-02T21:02:26.449Z,83.92
2022-12-02T21:05:28.451Z,84.90
2022-12-02T21:08:30.699Z,83.28
2022-12-02T21:11:32.728Z,83.67
2022-12-02T21:14:34.901Z,84.21
2022-12-02T21:17:37.208Z,84.65
2022-12-02T21:20:39.132Z,85.07
2022-12-02T21:23:41.205Z,84.92
2022-12-02T21:26:43.351Z,83.81
2022-12-02T21:29:45.271Z,84.35
2022-12-02T21:32:47.105Z,85.04
2022-12-02T21:55:58.628Z,84.76
2022-12-02T21:59:00.623Z,85.67
2022-12-02T22:02:02.618Z,85.99
2022-12-02T22:05:04.861Z,86.79
2022-12-02T22:08:06.866Z,86.78
2022-12-02T22:19:50.334Z,85.84
2022-12-02T22:23:52.183Z,86.20
2022-12-02T22:27:53.798Z,85.66
2022-12-02T22:31:15.711Z,85.96
2022-12-02T22:34:17.679Z,85.88
2022-12-02T22:37:19.601Z,84.86
2022-12-02T22:40:21.582Z,86.19
2022-12-02T22:43:23.465Z,86.85
2022-12-02T22:46:25.576Z,87.21
2022-12-02T22:49:27.782Z,86.86
2022-12-02T22:52:29.634Z,85.71
2022-12-02T22:55:31.528Z,85.50
2022-12-02T22:58:33.473Z,84.00
2022-12-02T23:01:35.505Z,83.67
2022-12-02T23:04:37.468Z,84.06
2022-12-02T23:07:39.379Z,84.13
2022-12-02T23:10:41.312Z,83.40
2022-12-02T23:13:43.247Z,83.41
2022-12-02T23:16:45.211Z,83.31
2022-12-02T23:19:47.115Z,82.96
2022-12-02T23:22:49.007Z,82.72
2022-12-02T23:25:50.840Z,82.69
2022-12-02T23:43:41.304Z,85.15
2022-12-02T23:46:43.229Z,84.96
2022-12-02T23:49:45.320Z,85.84
2022-12-02T23:52:47.175Z,86.73
2022-12-02T23:55:49.039Z,87.25
2022-12-02T23:58:50.852Z,86.49
